Time;durP1;ratioP1;P1;durP2;ratioP2;P2;SDS_P1;SDS_P2;PMS_P1;PMS_P2;Temp;Humidity;BMP_temperature;BMP_pressure;BME280_temperature;BME280_humidity;BME280_pressure;Samples;Min_cycle;Max_cycle;Signal;HPM_P1;HPM_P2
2023/10/19 00:02:05;;;;;;;;;1.00;1.00;;;;;16.80;83.63;98792.53;5076888;28;46914;-80
2023/10/19 00:04:35;;;;;;;;;4.67;2.00;;;;;16.78;83.94;98789.16;5077308;27;45195;-81
2023/10/19 00:07:04;;;;;;;;;2.00;0.33;;;;;16.79;84.00;98788.13;5084148;27;45447;-83
2023/10/19 00:09:36;;;;;;;;;1.67;0.00;;;;;16.75;83.97;98773.38;5099001;27;45652;-81
2023/10/19 00:12:02;;;;;;;;;1.00;1.00;;;;;16.64;84.19;98777.22;5098526;27;47370;-81
2023/10/19 00:14:28;;;;;;;;;3.00;1.33;;;;;16.61;84.07;98761.47;5097486;27;45350;-83
2023/10/19 00:16:56;;;;;;;;;1.00;1.00;;;;;16.74;84.27;98796.69;5097639;27;56957;-81
2023/10/19 00:19:22;;;;;;;;;0.33;0.33;;;;;16.75;84.16;98795.69;5098783;27;45177;-83
2023/10/19 00:21:51;;;;;;;;;1.00;1.00;;;;;16.76;84.47;98802.75;5098069;27;47417;-82
2023/10/19 00:24:22;;;;;;;;;2.00;0.67;;;;;16.78;84.63;98794.50;5097251;27;45369;-82
2023/10/19 00:26:48;;;;;;;;;3.67;1.00;;;;;16.78;84.32;98789.16;5097834;27;45230;-81
2023/10/19 00:29:32;;;;;;;;;0.00;0.00;;;;;16.75;84.50;98795.69;5098855;27;45226;-80
2023/10/19 00:31:59;;;;;;;;;2.00;1.00;;;;;16.81;84.17;98799.56;5098035;27;47292;-81
2023/10/19 00:34:25;;;;;;;;;6.33;1.00;;;;;16.80;84.08;98798.72;5080803;27;45621;-80
2023/10/19 00:36:51;;;;;;;;;3.00;2.00;;;;;16.78;84.08;98789.16;5082132;27;45387;-80
2023/10/19 00:39:27;;;;;;;;;3.00;1.67;;;;;16.85;84.04;98795.53;5098433;27;45427;-80
2023/10/19 00:41:57;;;;;;;;;1.00;1.00;;;;;16.80;84.28;98787.16;5098664;27;46036;-81
2023/10/19 00:44:24;;;;;;;;;2.33;1.00;;;;;16.87;84.16;98782.75;5097423;27;45346;-81
2023/10/19 00:47:00;;;;;;;;;2.00;2.00;;;;;16.85;84.05;98775.91;5093036;27;45298;-80
2023/10/19 00:49:26;;;;;;;;;1.33;1.33;;;;;16.78;84.04;98759.63;5078419;27;45533;-80
2023/10/19 00:54:36;;;;;;;;;5.00;1.33;;;;;16.89;84.40;98772.69;5076891;27;45329;-81
2023/10/19 00:57:13;;;;;;;;;2.67;1.00;;;;;16.87;84.78;98772.03;5092231;27;45556;-80
2023/10/19 01:02:19;;;;;;;;;3.00;1.67;;;;;16.84;85.34;98767.00;5077197;27;45393;-80
2023/10/19 01:04:50;;;;;;;;;1.00;1.00;;;;;16.82;85.41;98754.75;5096188;27;45330;-80
2023/10/19 01:07:22;;;;;;;;;6.00;2.00;;;;;16.80;85.43;98758.47;5097392;27;46041;-80
2023/10/19 01:09:53;;;;;;;;;3.00;0.33;;;;;16.85;85.63;98762.47;5113751;27;45511;-81
2023/10/19 01:12:25;;;;;;;;;2.00;2.00;;;;;16.80;86.00;98771.03;5097911;27;46051;-81
2023/10/19 01:15:06;;;;;;;;;2.00;2.00;;;;;16.65;86.64;98727.06;5095396;27;45518;-81
2023/10/19 01:17:33;;;;;;;;;1.00;1.00;;;;;16.69;86.59;98731.13;5087873;27;45438;-80
2023/10/19 01:19:58;;;;;;;;;2.33;2.00;;;;;16.80;86.73;98745.03;5077669;27;45399;-81
2023/10/19 01:22:26;;;;;;;;;3.00;2.00;;;;;16.79;87.34;98748.69;5077253;27;58436;-81
2023/10/19 01:24:53;;;;;;;;;6.00;1.67;;;;;16.76;87.10;98732.94;5077737;27;45286;-83
2023/10/19 01:27:18;;;;;;;;;2.00;1.00;;;;;16.76;87.24;98724.06;5077176;27;45464;-83
2023/10/19 01:29:44;;;;;;;;;3.00;2.00;;;;;16.78;87.53;98719.34;5077909;27;47894;-80
2023/10/19 01:32:12;;;;;;;;;5.67;2.33;;;;;16.71;87.77;98729.09;5082152;27;45467;-83
2023/10/19 01:34:37;;;;;;;;;2.67;2.00;;;;;16.61;87.95;98689.00;5097403;27;45419;-80
2023/10/19 01:37:03;;;;;;;;;3.67;2.00;;;;;16.78;88.23;98717.50;5089016;27;45349;-82
2023/10/19 01:39:35;;;;;;;;;3.67;2.00;;;;;16.73;88.39;98700.25;5077833;27;45518;-79
2023/10/19 01:42:01;;;;;;;;;2.00;2.00;;;;;16.68;88.58;98686.50;5092319;27;47449;-80
2023/10/19 01:44:27;;;;;;;;;4.33;3.33;;;;;16.77;88.60;98701.56;5086734;27;45544;-80
2023/10/19 01:46:53;;;;;;;;;3.33;2.67;;;;;16.78;88.91;98701.41;5095772;27;45551;-80
2023/10/19 01:49:26;;;;;;;;;2.00;2.00;;;;;16.77;88.93;98688.16;5079126;27;45455;-81
2023/10/19 01:51:53;;;;;;;;;2.00;2.00;;;;;16.76;88.89;98690.00;5076718;27;46098;-82
2023/10/19 01:54:22;;;;;;;;;5.00;3.67;;;;;16.80;89.40;98687.81;5076118;27;45323;-82
2023/10/19 01:56:50;;;;;;;;;6.00;3.00;;;;;16.81;89.16;98686.81;5080451;27;45393;-83
2023/10/19 01:59:16;;;;;;;;;4.67;4.00;;;;;16.72;89.46;98671.72;5096497;27;45214;-78
2023/10/19 02:01:45;;;;;;;;;5.67;3.00;;;;;16.67;89.65;98663.34;5096795;27;46065;-81
2023/10/19 02:04:13;;;;;;;;;2.00;2.00;;;;;16.78;89.45;98676.41;5098103;27;45243;-80
2023/10/19 02:06:40;;;;;;;;;5.00;3.00;;;;;16.78;89.59;98673.72;5094711;27;45579;-81
2023/10/19 02:11:42;;;;;;;;;2.00;2.00;;;;;16.77;89.10;98664.81;5081933;27;45392;-80
2023/10/19 02:14:14;;;;;;;;;3.00;1.67;;;;;16.75;88.93;98655.28;5096814;27;45384;-79
2023/10/19 02:16:51;;;;;;;;;5.33;1.33;;;;;16.74;89.42;98659.81;5095767;27;45263;-80
2023/10/19 02:19:17;;;;;;;;;3.67;1.00;;;;;16.73;89.43;98652.75;5096983;27;45463;-80
2023/10/19 02:21:43;;;;;;;;;2.00;2.00;;;;;16.66;89.65;98640.16;5095368;27;45415;-80
2023/10/19 02:24:11;;;;;;;;;5.67;1.33;;;;;16.67;90.21;98641.88;5096728;27;45789;-80
2023/10/19 02:26:37;;;;;;;;;4.67;2.00;;;;;16.65;89.93;98633.13;5092135;27;45492;-83
2023/10/19 02:29:13;;;;;;;;;3.67;2.33;;;;;16.69;89.99;98642.56;5076451;27;45491;-81
2023/10/19 02:31:41;;;;;;;;;3.33;2.00;;;;;16.67;90.17;98633.81;5075940;27;46134;-79
2023/10/19 02:34:10;;;;;;;;;2.33;2.33;;;;;16.65;90.43;98633.13;5075272;27;45551;-81
2023/10/19 02:36:37;;;;;;;;;4.00;3.00;;;;;16.44;90.66;98605.00;5077917;27;45568;-80
2023/10/19 02:39:07;;;;;;;;;3.00;1.33;;;;;16.61;90.96;98632.63;5097265;27;45822;-80
2023/10/19 02:41:37;;;;;;;;;3.00;2.00;;;;;16.59;90.36;98623.91;5097267;27;46914;-79
2023/10/19 02:46:41;;;;;;;;;4.33;3.33;;;;;16.69;90.58;98637.19;5083525;27;45453;-80
2023/10/19 02:49:11;;;;;;;;;2.67;2.67;;;;;16.73;90.27;98636.66;5097944;27;45389;-79
2023/10/19 02:51:40;;;;;;;;;6.33;5.00;;;;;16.69;89.82;98621.09;5086984;27;45299;-80
2023/10/19 02:54:07;;;;;;;;;3.00;2.00;;;;;16.66;90.28;98624.88;5079251;28;45326;-80
2023/10/19 02:56:35;;;;;;;;;5.33;2.00;;;;;16.61;90.00;98604.97;5078920;27;45440;-82
2023/10/19 02:59:03;;;;;;;;;2.00;1.00;;;;;16.61;89.95;98611.16;5080109;28;45656;-83
2023/10/19 03:01:31;;;;;;;;;1.67;1.67;;;;;16.66;89.89;98616.84;5079947;27;46175;-82
2023/10/19 03:04:00;;;;;;;;;2.00;0.00;;;;;16.58;90.18;98608.00;5080817;27;45277;-80
2023/10/19 03:06:31;;;;;;;;;4.00;2.67;;;;;16.65;89.93;98625.91;5079147;27;45552;-81
2023/10/19 03:09:01;;;;;;;;;7.00;3.00;;;;;16.58;90.20;98611.50;5079930;27;45375;-80
2023/10/19 03:11:30;;;;;;;;;3.67;2.00;;;;;16.49;90.31;98602.63;5079546;27;45456;-79
2023/10/19 03:13:56;;;;;;;;;2.67;2.00;;;;;16.57;90.39;98619.75;5080191;27;45292;-80
2023/10/19 03:16:23;;;;;;;;;3.00;1.33;;;;;16.59;90.26;98618.56;5080497;27;45497;-80
2023/10/19 03:18:49;;;;;;;;;3.00;1.33;;;;;16.48;90.34;98608.19;5100029;27;45357;-79
2023/10/19 03:21:16;;;;;;;;;1.67;1.00;;;;;16.52;89.92;98607.66;5099660;27;45439;-80
2023/10/19 03:23:41;;;;;;;;;2.00;2.00;;;;;16.57;90.09;98609.00;5099449;27;45281;-82
2023/10/19 03:26:27;;;;;;;;;2.00;1.00;;;;;16.58;90.14;98599.94;5099161;27;46773;-79
2023/10/19 03:28:56;;;;;;;;;1.00;1.00;;;;;16.55;90.33;98592.25;5081872;27;45530;-81
2023/10/19 03:31:23;;;;;;;;;1.67;1.67;;;;;16.51;90.48;98591.72;5090906;27;46169;-79
2023/10/19 03:33:53;;;;;;;;;2.00;2.00;;;;;16.46;90.58;98586.06;5094379;27;45783;-81
2023/10/19 03:36:19;;;;;;;;;2.00;2.00;;;;;16.42;90.75;98588.25;5079090;27;45233;-80
2023/10/19 03:38:45;;;;;;;;;6.67;3.00;;;;;16.44;91.16;98596.13;5098651;27;45247;-82
2023/10/19 03:41:11;;;;;;;;;3.33;2.33;;;;;16.36;91.30;98588.94;5113978;27;47440;-81
2023/10/19 03:43:43;;;;;;;;;4.67;2.00;;;;;16.29;91.21;98579.06;5099797;27;45627;-80
2023/10/19 03:46:28;;;;;;;;;3.00;2.00;;;;;16.30;91.64;98595.00;5102056;27;45330;-83
2023/10/19 03:48:58;;;;;;;;;4.33;1.67;;;;;16.22;92.09;98576.22;5102114;27;45210;-83
2023/10/19 03:51:26;;;;;;;;;2.33;2.00;;;;;16.26;92.30;98582.91;5101237;27;45398;-85
2023/10/19 03:53:55;;;;;;;;;3.00;1.00;;;;;16.16;92.71;98568.88;5101034;27;45468;-83
2023/10/19 03:56:24;;;;;;;;;1.33;1.00;;;;;16.18;93.21;98567.69;5098972;27;45314;-81
2023/10/19 03:58:50;;;;;;;;;2.00;2.00;;;;;16.14;93.51;98565.50;5100547;27;45430;-82
2023/10/19 04:01:16;;;;;;;;;2.67;1.33;;;;;16.10;93.81;98558.81;5099199;27;45424;-84
2023/10/19 04:03:43;;;;;;;;;3.33;2.33;;;;;16.08;93.87;98560.84;5098748;27;45554;-81
2023/10/19 04:06:13;;;;;;;;;5.00;1.33;;;;;16.10;94.02;98558.81;5093136;27;45305;-80
2023/10/19 04:08:39;;;;;;;;;1.00;1.00;;;;;16.05;94.13;98550.44;5097988;27;45268;-81
2023/10/19 04:11:11;;;;;;;;;4.67;1.67;;;;;15.98;94.81;98541.41;5098936;27;45378;-81
2023/10/19 04:13:38;;;;;;;;;2.00;1.67;;;;;15.98;94.65;98538.72;5099001;27;45306;-79
2023/10/19 04:16:05;;;;;;;;;1.33;1.33;;;;;15.88;94.77;98529.00;5092370;27;45444;-80
2023/10/19 04:18:31;;;;;;;;;2.33;1.33;;;;;16.00;95.09;98544.75;5078263;28;45556;-80
2023/10/19 04:20:57;;;;;;;;;1.67;1.67;;;;;15.88;95.13;98528.16;5087651;27;45301;-80
2023/10/19 04:23:26;;;;;;;;;6.33;2.00;;;;;15.94;94.98;98543.59;5097258;27;45421;-81
2023/10/19 04:25:53;;;;;;;;;3.67;2.00;;;;;15.94;95.61;98551.63;5097499;27;45371;-80
2023/10/19 04:28:30;;;;;;;;;2.00;2.00;;;;;15.82;96.17;98527.03;5098552;27;45344;-80
2023/10/19 04:31:02;;;;;;;;;2.33;2.33;;;;;15.90;95.78;98527.03;5098335;27;45333;-80
2023/10/19 04:33:30;;;;;;;;;3.00;3.00;;;;;15.94;95.66;98532.88;5097071;27;45450;-81
2023/10/19 04:35:55;;;;;;;;;4.67;2.00;;;;;15.82;95.80;98508.25;5097659;27;45428;-79
2023/10/19 04:38:23;;;;;;;;;3.33;2.00;;;;;15.95;95.74;98539.06;5096998;27;45390;-80
2023/10/19 04:40:48;;;;;;;;;14.33;4.00;;;;;15.98;95.51;98525.31;5096993;27;46226;-80
2023/10/19 04:43:14;;;;;;;;;6.00;3.00;;;;;16.00;95.66;98525.97;5098059;27;45323;-82
2023/10/19 04:45:40;;;;;;;;;5.33;2.00;;;;;15.89;95.64;98509.25;5096321;27;45721;-81
2023/10/19 04:48:06;;;;;;;;;5.67;1.00;;;;;16.00;95.42;98508.03;5098760;27;45467;-82
2023/10/19 04:50:31;;;;;;;;;2.00;2.00;;;;;15.98;95.23;98512.75;5098140;27;45475;-79
2023/10/19 04:52:56;;;;;;;;;1.67;1.33;;;;;16.00;95.41;98505.38;5096862;27;45445;-81
2023/10/19 04:55:22;;;;;;;;;3.00;3.00;;;;;16.02;95.24;98505.22;5098251;27;45489;-80
2023/10/19 04:57:47;;;;;;;;;2.33;2.33;;;;;16.05;95.23;98510.22;5075874;27;57065;-81
2023/10/19 05:00:14;;;;;;;;;3.00;2.00;;;;;16.07;95.11;98498.31;5077148;27;45978;-80
2023/10/19 05:02:40;;;;;;;;;2.33;1.33;;;;;16.06;94.95;98483.25;5077495;28;45392;-79
2023/10/19 05:05:05;;;;;;;;;1.00;1.00;;;;;15.89;94.62;98444.09;5077484;28;45317;-81
2023/10/19 05:07:31;;;;;;;;;2.67;2.00;;;;;16.09;94.19;98471.34;5076629;27;45550;-81
2023/10/19 05:09:59;;;;;;;;;3.00;2.33;;;;;15.79;94.62;98416.66;5098020;27;45371;-79
2023/10/19 05:12:24;;;;;;;;;4.00;2.00;;;;;16.06;93.95;98456.44;5097575;27;45288;-81
2023/10/19 05:14:50;;;;;;;;;5.00;3.00;;;;;16.17;94.24;98471.31;5097835;27;45346;-85
2023/10/19 05:17:16;;;;;;;;;4.00;2.33;;;;;16.12;94.02;98479.03;5094241;27;45547;-80
2023/10/19 05:19:41;;;;;;;;;2.00;1.00;;;;;16.10;94.37;98486.41;5076948;27;45876;-79
2023/10/19 05:22:08;;;;;;;;;3.00;2.00;;;;;16.09;94.22;98484.75;5076854;28;54922;-81
2023/10/19 05:24:35;;;;;;;;;3.33;1.67;;;;;16.02;94.87;98478.41;5076043;28;45517;-80
2023/10/19 05:27:00;;;;;;;;;3.67;2.33;;;;;15.99;94.47;98457.28;5083075;27;45555;-85
2023/10/19 05:29:25;;;;;;;;;2.00;1.00;;;;;16.07;94.15;98463.47;5087888;27;58435;-83
2023/10/19 05:31:57;;;;;;;;;4.00;2.33;;;;;16.14;94.11;98456.38;5084943;27;45424;-82
2023/10/19 05:34:26;;;;;;;;;3.00;3.00;;;;;16.16;93.78;98449.03;5101456;27;45336;-79
2023/10/19 05:36:52;;;;;;;;;3.00;1.67;;;;;16.16;93.45;98430.25;5088840;27;45505;-84
2023/10/19 05:39:17;;;;;;;;;4.00;2.33;;;;;16.17;93.69;98426.56;5086175;27;47139;-80
2023/10/19 05:41:43;;;;;;;;;3.67;3.00;;;;;16.15;93.53;98417.03;5079526;27;45441;-79
2023/10/19 05:44:09;;;;;;;;;1.67;1.67;;;;;16.21;93.22;98410.94;5078382;27;45169;-83
2023/10/19 05:46:34;;;;;;;;;2.00;2.00;;;;;16.27;92.61;98410.22;5086293;27;45361;-81
2023/10/19 05:49:03;;;;;;;;;4.00;2.33;;;;;16.09;92.64;98381.00;5085108;27;46045;-84
2023/10/19 05:51:29;;;;;;;;;5.00;3.00;;;;;16.30;92.39;98426.00;5085412;27;45377;-80
2023/10/19 05:54:01;;;;;;;;;4.00;4.00;;;;;16.29;92.44;98429.69;5097734;27;45373;-80
2023/10/19 05:56:26;;;;;;;;;5.00;3.00;;;;;16.24;92.25;98410.59;5088808;27;45313;-81
2023/10/19 05:58:53;;;;;;;;;4.00;4.00;;;;;16.15;92.04;98390.22;5081010;27;46098;-82
2023/10/19 06:01:19;;;;;;;;;2.00;2.00;;;;;16.20;91.86;98418.16;5078277;28;45357;-81
2023/10/19 06:03:48;;;;;;;;;5.00;4.00;;;;;16.15;91.72;98406.31;5077943;27;45342;-82
2023/10/19 06:06:13;;;;;;;;;3.67;3.00;;;;;16.28;91.46;98419.16;5106281;27;45497;-81
2023/10/19 06:08:40;;;;;;;;;4.00;2.67;;;;;16.20;91.46;98417.31;5098051;27;46209;-80
2023/10/19 06:11:06;;;;;;;;;5.00;4.33;;;;;16.14;91.52;98399.25;5075408;27;45542;-81
2023/10/19 06:13:32;;;;;;;;;3.00;3.00;;;;;16.34;93.01;98432.69;5085691;27;45330;-83
2023/10/19 06:15:57;;;;;;;;;5.67;3.00;;;;;16.30;94.22;98392.97;5087595;27;45344;-85
2023/10/19 06:18:22;;;;;;;;;7.00;4.00;;;;;16.33;93.41;98401.50;5083043;27;57366;-84
2023/10/19 06:20:50;;;;;;;;;7.00;4.33;;;;;16.25;93.33;98374.72;5093483;27;45401;-81
2023/10/19 06:23:17;;;;;;;;;3.00;3.00;;;;;16.23;93.56;98358.81;5109340;27;45372;-79
2023/10/19 06:25:44;;;;;;;;;5.33;4.00;;;;;16.35;93.01;98386.06;5109665;27;45177;-79
2023/10/19 06:28:11;;;;;;;;;7.00;4.33;;;;;16.40;93.30;98381.00;5110335;27;45281;-83
2023/10/19 06:30:36;;;;;;;;;4.67;4.67;;;;;16.41;92.95;98385.38;5101968;27;45220;-79
2023/10/19 06:33:02;;;;;;;;;6.00;4.00;;;;;16.44;93.19;98390.38;5107709;27;45337;-84
2023/10/19 06:35:31;;;;;;;;;5.00;5.00;;;;;16.40;93.43;98386.34;5106636;27;45514;-87
2023/10/19 06:37:58;;;;;;;;;7.67;5.00;;;;;16.46;93.85;98392.88;5118060;27;46211;-87
2023/10/19 06:40:25;;;;;;;;;12.00;7.67;;;;;16.43;94.08;98383.34;5098242;27;45324;-85
2023/10/19 06:42:50;;;;;;;;;5.67;4.00;;;;;16.57;93.04;98405.06;5097807;27;45276;-78
2023/10/19 06:45:18;;;;;;;;;7.00;5.67;;;;;16.61;92.72;98409.06;5098778;27;45214;-80
2023/10/19 06:47:45;;;;;;;;;4.67;4.67;;;;;16.55;92.16;98401.72;5098817;27;46012;-81
2023/10/19 06:50:16;;;;;;;;;4.00;3.00;;;;;16.50;92.27;98400.38;5098218;27;45406;-79
2023/10/19 06:52:43;;;;;;;;;5.67;5.00;;;;;16.36;92.70;98394.94;5099162;27;45441;-78
2023/10/19 06:55:13;;;;;;;;;6.67;4.67;;;;;16.43;92.81;98396.75;5099661;27;45427;-79
2023/10/19 06:57:45;;;;;;;;;6.67;4.00;;;;;16.43;93.08;98393.25;5097918;27;46040;-79
2023/10/19 07:00:16;;;;;;;;;5.33;4.33;;;;;16.39;92.14;98375.81;5099127;27;45426;-79
2023/10/19 07:02:44;;;;;;;;;8.33;5.67;;;;;16.55;92.25;98391.00;5098159;27;45468;-79
2023/10/19 07:05:11;;;;;;;;;5.67;4.00;;;;;16.65;91.78;98402.31;5098178;27;45419;-80
2023/10/19 07:07:43;;;;;;;;;5.00;3.33;;;;;16.58;91.20;98380.72;5098286;27;45341;-80
2023/10/19 07:10:09;;;;;;;;;7.00;4.00;;;;;16.52;91.21;98368.00;5097193;27;45440;-80
2023/10/19 07:12:36;;;;;;;;;5.00;3.67;;;;;16.53;91.33;98378.56;5097285;27;45375;-79
2023/10/19 07:15:03;;;;;;;;;3.67;3.00;;;;;16.62;91.19;98374.00;5098460;27;45410;-80
2023/10/19 07:17:28;;;;;;;;;6.33;4.33;;;;;16.71;90.73;98358.72;5098025;27;47372;-80
2023/10/19 07:19:56;;;;;;;;;4.33;3.33;;;;;16.73;90.31;98378.16;5097867;27;45302;-80
2023/10/19 07:22:22;;;;;;;;;2.33;2.33;;;;;16.68;90.55;98376.00;5097971;27;45255;-87
2023/10/19 07:24:48;;;;;;;;;5.00;3.67;;;;;16.62;90.99;98370.47;5102876;27;45360;-82
2023/10/19 07:27:18;;;;;;;;;5.33;4.00;;;;;16.62;90.93;98375.84;5119472;27;46037;-88
2023/10/19 07:29:47;;;;;;;;;6.33;3.00;;;;;16.62;90.99;98375.84;5106971;27;45312;-84
2023/10/19 07:32:13;;;;;;;;;7.67;5.00;;;;;16.57;91.34;98372.88;5105121;27;45392;-81
2023/10/19 07:34:39;;;;;;;;;3.00;3.00;;;;;16.50;91.02;98357.47;5104808;27;45251;-79
2023/10/19 07:37:05;;;;;;;;;6.33;4.00;;;;;16.53;91.08;98362.47;5104831;27;46183;-81
2023/10/19 07:39:33;;;;;;;;;4.00;4.00;;;;;16.41;90.99;98341.63;5118529;27;45333;-80
2023/10/19 07:41:59;;;;;;;;;4.33;3.00;;;;;16.50;91.07;98352.09;5102554;27;45306;-82
2023/10/19 07:44:24;;;;;;;;;5.67;3.00;;;;;16.31;90.78;98304.28;5102282;27;45329;-83
2023/10/19 07:46:49;;;;;;;;;3.67;1.00;;;;;16.63;90.56;98342.63;5102240;27;45245;-80
2023/10/19 07:49:15;;;;;;;;;5.00;3.00;;;;;16.65;90.38;98329.84;5101233;27;45278;-82
2023/10/19 07:51:51;;;;;;;;;4.00;3.00;;;;;16.50;90.32;98297.59;5100760;27;50327;-82
2023/10/19 07:54:16;;;;;;;;;5.33;3.00;;;;;16.73;89.53;98333.34;5099670;27;45287;-83
2023/10/19 07:56:42;;;;;;;;;4.00;4.00;;;;;16.80;89.09;98331.63;5101393;27;46236;-81
2023/10/19 07:59:07;;;;;;;;;5.00;3.33;;;;;16.85;89.07;98336.44;5101606;27;45208;-85
2023/10/19 08:01:40;;;;;;;;;2.00;2.00;;;;;16.84;88.48;98337.47;5100465;27;45511;-84
2023/10/19 08:04:05;;;;;;;;;2.00;2.00;;;;;16.73;88.52;98324.47;5100518;27;45234;-83
2023/10/19 08:06:31;;;;;;;;;4.00;3.00;;;;;16.73;88.39;98329.84;5099987;27;45432;-85
2023/10/19 08:08:57;;;;;;;;;5.00;3.67;;;;;16.74;88.32;98336.88;5099540;27;45212;-82
2023/10/19 08:11:23;;;;;;;;;6.67;3.00;;;;;16.75;88.73;98327.78;5099964;27;45313;-83
2023/10/19 08:13:49;;;;;;;;;3.00;3.00;;;;;16.37;88.46;98284.78;5100882;27;45674;-84
2023/10/19 08:16:16;;;;;;;;;7.00;4.00;;;;;16.42;88.17;98274.38;5099053;27;45941;-83
2023/10/19 08:18:41;;;;;;;;;2.33;2.00;;;;;16.58;87.88;98300.22;5100276;27;45445;-82
2023/10/19 08:21:07;;;;;;;;;6.00;3.00;;;;;16.89;88.07;98331.53;5101368;27;45254;-83
2023/10/19 08:23:32;;;;;;;;;5.00;4.00;;;;;16.92;87.44;98344.59;5099546;27;45836;-83
2023/10/19 08:25:58;;;;;;;;;3.00;3.00;;;;;16.76;87.28;98291.88;5098915;27;46236;-82
2023/10/19 08:28:24;;;;;;;;;3.00;3.00;;;;;17.02;86.42;98340.66;5098736;27;45390;-81
2023/10/19 08:31:00;;;;;;;;;8.00;4.00;;;;;17.04;86.19;98317.13;5098826;27;45275;-83
2023/10/19 08:33:26;;;;;;;;;3.67;3.00;;;;;17.26;85.50;98325.31;5098730;27;45443;-82
2023/10/19 08:35:56;;;;;;;;;3.67;3.67;;;;;17.26;84.86;98317.25;5099002;27;45364;-82
2023/10/19 08:38:24;;;;;;;;;4.33;3.00;;;;;17.45;84.16;98319.41;5099141;27;45457;-82
2023/10/19 08:40:50;;;;;;;;;3.33;3.33;;;;;17.54;83.36;98315.59;5098022;27;45236;-81
2023/10/19 08:43:18;;;;;;;;;2.67;2.67;;;;;17.62;83.04;98320.91;5098964;27;45399;-83
2023/10/19 08:45:44;;;;;;;;;4.00;4.00;;;;;17.67;82.69;98314.94;5098494;27;45974;-82
2023/10/19 08:48:11;;;;;;;;;4.00;4.00;;;;;17.66;82.13;98310.59;5099173;27;45278;-82
2023/10/19 08:50:37;;;;;;;;;7.00;3.33;;;;;17.67;81.71;98305.03;5099201;27;45347;-82
2023/10/19 08:53:05;;;;;;;;;2.00;2.00;;;;;17.80;81.22;98319.69;5098436;27;45374;-82
2023/10/19 08:55:31;;;;;;;;;2.67;2.67;;;;;17.35;81.25;98246.31;5098691;27;45170;-79
2023/10/19 08:58:00;;;;;;;;;4.33;3.00;;;;;17.81;80.91;98311.44;5098205;27;45366;-80
2023/10/19 09:00:26;;;;;;;;;5.00;3.00;;;;;17.93;80.68;98315.31;5096235;27;45441;-81
2023/10/19 09:02:53;;;;;;;;;1.33;1.33;;;;;17.90;79.94;98306.81;5099579;27;45328;-81
2023/10/19 09:05:22;;;;;;;;;3.00;2.00;;;;;17.98;80.16;98314.78;5100823;27;45434;-82
2023/10/19 09:07:55;;;;;;;;;4.33;3.00;;;;;17.94;80.05;98295.47;5104749;27;45407;-83
2023/10/19 09:10:31;;;;;;;;;3.00;3.00;;;;;18.00;79.81;98317.28;5101119;27;45305;-81
2023/10/19 09:13:02;;;;;;;;;2.00;2.00;;;;;17.98;80.22;98309.41;5099979;27;45230;-78
2023/10/19 09:15:28;;;;;;;;;2.00;2.00;;;;;17.88;79.94;98292.72;5100968;27;45399;-82
2023/10/19 09:17:54;;;;;;;;;2.00;2.00;;;;;17.80;80.15;98287.44;5099228;27;45196;-80
2023/10/19 09:20:27;;;;;;;;;3.67;2.67;;;;;17.83;80.03;98290.56;5100183;27;45220;-80
2023/10/19 09:22:54;;;;;;;;;2.00;2.00;;;;;17.87;79.48;98285.69;5100194;27;45392;-80
2023/10/19 09:25:20;;;;;;;;;1.67;1.67;;;;;17.95;79.63;98280.16;5099484;27;45721;-82
2023/10/19 09:27:46;;;;;;;;;4.33;3.00;;;;;18.18;78.79;98305.06;5099052;27;46227;-80
2023/10/19 09:30:18;;;;;;;;;1.00;1.00;;;;;18.22;78.68;98303.66;5101353;27;45344;-82
2023/10/19 09:32:46;;;;;;;;;2.67;2.00;;;;;18.36;78.61;98298.41;5101620;27;45324;-83
2023/10/19 09:35:15;;;;;;;;;4.67;3.00;;;;;18.45;78.04;98290.03;5102059;27;46474;-79
2023/10/19 09:37:44;;;;;;;;;1.00;1.00;;;;;18.31;77.71;98264.00;5099108;27;45438;-81
2023/10/19 09:40:12;;;;;;;;;2.33;2.00;;;;;18.39;77.87;98263.06;5102042;27;45296;-79
2023/10/19 09:42:46;;;;;;;;;4.00;3.00;;;;;18.43;77.34;98253.56;5099101;27;45317;-80
2023/10/19 09:45:12;;;;;;;;;1.00;1.00;;;;;18.46;77.37;98256.69;5098725;27;46106;-79
2023/10/19 09:47:45;;;;;;;;;4.33;3.00;;;;;18.40;77.19;98262.03;5098758;27;45348;-79
2023/10/19 09:50:11;;;;;;;;;3.00;2.00;;;;;18.26;77.59;98253.00;5098898;27;45202;-79
2023/10/19 09:52:38;;;;;;;;;2.00;2.00;;;;;18.37;77.76;98262.44;5098171;27;45184;-79
2023/10/19 09:55:14;;;;;;;;;4.00;2.33;;;;;18.46;77.25;98264.78;5097795;27;46002;-81
2023/10/19 09:57:51;;;;;;;;;1.67;1.67;;;;;18.66;76.30;98254.22;5097088;27;45479;-81
2023/10/19 10:00:23;;;;;;;;;3.00;3.00;;;;;18.73;76.13;98255.09;5098050;27;45451;-80
2023/10/19 10:02:49;;;;;;;;;2.67;2.67;;;;;18.96;75.12;98260.25;5096214;27;45915;-79
2023/10/19 10:05:44;;;;;;;;;2.33;1.67;;;;;19.10;74.83;98266.56;5095809;27;46176;-80
2023/10/19 10:08:31;;;;;;;;;0.33;0.33;;;;;19.25;73.63;98248.44;5079666;27;45465;-80
2023/10/19 10:10:57;;;;;;;;;2.67;2.67;;;;;19.45;73.54;98262.84;5097712;27;45536;-78
2023/10/19 10:13:32;;;;;;;;;1.00;1.00;;;;;19.64;72.58;98265.88;5097589;27;45500;-80
2023/10/19 10:15:58;;;;;;;;;3.00;1.67;;;;;19.84;72.09;98252.50;5097700;27;46035;-80
2023/10/19 10:18:24;;;;;;;;;3.00;1.33;;;;;19.92;70.81;98252.28;5097029;27;45172;-80
2023/10/19 10:21:08;;;;;;;;;1.67;1.67;;;;;19.99;70.45;98235.09;5098774;27;45297;-84
2023/10/19 10:23:40;;;;;;;;;3.33;2.33;;;;;20.16;69.98;98246.34;5097781;27;45361;-79
2023/10/19 10:26:08;;;;;;;;;1.67;1.67;;;;;20.31;69.95;98235.38;5097758;27;45305;-82
2023/10/19 10:28:35;;;;;;;;;1.00;1.00;;;;;20.37;68.64;98231.03;5097184;27;45382;-79
2023/10/19 10:31:14;;;;;;;;;2.67;1.67;;;;;20.55;68.73;98239.38;5097345;27;45289;-80
2023/10/19 10:33:41;;;;;;;;;2.50;2.50;;;;;20.71;67.69;98232.75;5097226;27;45467;-80
2023/10/19 10:36:08;;;;;;;;;3.00;2.75;;;;;21.04;67.23;98238.94;5099834;27;45525;-81
2023/10/19 10:38:37;;;;;;;;;4.75;1.75;;;;;21.29;66.18;98232.91;5101101;27;45392;-80
2023/10/19 10:41:03;;;;;;;;;2.75;2.75;;;;;21.56;65.31;98225.53;5102355;27;45257;-84
2023/10/19 10:43:29;;;;;;;;;3.25;1.25;;;;;21.70;63.96;98217.16;5099142;27;45333;-81
2023/10/19 10:46:10;;;;;;;;;3.00;2.00;;;;;21.72;63.39;98201.53;5098490;27;46187;-80
2023/10/19 10:48:41;;;;;;;;;1.75;1.75;;;;;21.87;62.83;98222.91;5098068;27;45267;-86
2023/10/19 10:51:18;;;;;;;;;3.25;3.25;;;;;22.02;61.72;98214.53;5097723;27;45297;-80
2023/10/19 10:53:46;;;;;;;;;2.00;2.00;;;;;22.21;61.63;98196.50;5098741;27;45362;-81
2023/10/19 10:56:12;;;;;;;;;3.50;3.00;;;;;22.49;60.60;98204.22;5098318;27;46292;-83
2023/10/19 10:58:37;;;;;;;;;2.00;2.00;;;;;22.77;59.30;98193.75;5098578;27;46114;-80
2023/10/19 11:01:03;;;;;;;;;1.50;1.00;;;;;22.95;57.99;98171.34;5102910;27;45368;-80
2023/10/19 11:03:30;;;;;;;;;3.25;1.25;;;;;23.11;57.40;98178.03;5100474;27;45381;-84
2023/10/19 11:06:02;;;;;;;;;0.75;0.75;;;;;23.17;55.95;98163.56;5100562;27;45426;-85
2023/10/19 11:08:27;;;;;;;;;1.60;0.80;;;;;23.43;56.11;98157.00;5100621;27;45223;-88
2023/10/19 11:10:54;;;;;;;;;2.00;2.00;;;;;23.67;55.40;98163.44;5117889;27;45472;-84
2023/10/19 11:13:24;;;;;;;;;2.00;2.00;;;;;23.91;54.67;98169.78;5103616;27;45278;-81
2023/10/19 11:15:56;;;;;;;;;2.75;2.75;;;;;23.74;54.97;98154.16;5100742;27;46098;-82
2023/10/19 11:18:40;;;;;;;;;3.00;3.00;;;;;24.03;54.56;98163.34;5100871;27;45283;-79
2023/10/19 11:21:11;;;;;;;;;6.25;3.00;;;;;24.08;53.80;98165.34;5099266;27;45465;-80
2023/10/19 11:23:47;;;;;;;;;1.75;1.75;;;;;24.33;53.76;98159.78;5100403;27;45557;-80
2023/10/19 11:26:14;;;;;;;;;1.25;1.25;;;;;24.62;52.45;98160.78;5098439;27;48146;-79
2023/10/19 11:28:58;;;;;;;;;3.20;2.00;;;;;24.74;52.33;98158.03;5099552;27;45402;-81
2023/10/19 11:31:24;;;;;;;;;2.00;1.60;;;;;24.61;51.75;98153.66;5100011;27;45497;-79
2023/10/19 11:33:58;;;;;;;;;2.75;2.00;;;;;24.73;51.31;98145.50;5100088;27;45595;-80
2023/10/19 11:36:24;;;;;;;;;1.20;1.20;;;;;24.69;51.28;98156.88;5100280;27;45505;-80
2023/10/19 11:38:52;;;;;;;;;1.00;1.00;;;;;24.33;52.14;98157.88;5100594;27;45571;-81
2023/10/19 11:41:17;;;;;;;;;6.60;2.40;;;;;23.96;52.20;98113.75;5100146;27;45343;-80
2023/10/19 11:43:45;;;;;;;;;2.50;2.50;;;;;24.45;52.25;98151.66;5100540;27;45390;-80
2023/10/19 11:46:11;;;;;;;;;2.00;2.00;;;;;25.05;51.20;98138.69;5099974;27;45473;-80
2023/10/19 11:48:39;;;;;;;;;3.00;3.00;;;;;26.05;49.06;98132.81;5100665;27;45332;-81
2023/10/19 11:51:06;;;;;;;;;1.40;1.40;;;;;25.79;48.33;98120.66;5099175;27;45397;-80